sensor_id;sensor_type;location;lat;lon;timestamp;P1;durP1;ratioP1;P2;durP2;ratioP2
77117;SDS011;66072;50.238;19.228;2024-02-23T00:00:10;6.10;;;4.30;;
77117;SDS011;66072;50.238;19.228;2024-02-23T00:02:58;6.50;;;4.00;;
77117;SDS011;66072;50.238;19.228;2024-02-23T00:05:26;6.90;;;4.30;;
77117;SDS011;66072;50.238;19.228;2024-02-23T00:07:54;5.60;;;4.40;;
77117;SDS011;66072;50.238;19.228;2024-02-23T00:10:22;6.70;;;4.20;;
77117;SDS011;66072;50.238;19.228;2024-02-23T00:12:50;8.60;;;4.70;;
77117;SDS011;66072;50.238;19.228;2024-02-23T00:15:17;4.80;;;3.70;;
77117;SDS011;66072;50.238;19.228;2024-02-23T00:17:45;5.10;;;3.80;;
77117;SDS011;66072;50.238;19.228;2024-02-23T00:20:13;5.60;;;3.90;;
77117;SDS011;66072;50.238;19.228;2024-02-23T00:22:41;6.60;;;4.20;;
77117;SDS011;66072;50.238;19.228;2024-02-23T00:25:08;6.20;;;4.50;;
77117;SDS011;66072;50.238;19.228;2024-02-23T00:27:36;5.60;;;4.00;;
77117;SDS011;66072;50.238;19.228;2024-02-23T00:30:04;7.80;;;4.40;;
77117;SDS011;66072;50.238;19.228;2024-02-23T00:32:32;5.50;;;3.60;;
77117;SDS011;66072;50.238;19.228;2024-02-23T00:35:00;6.20;;;3.80;;
77117;SDS011;66072;50.238;19.228;2024-02-23T00:37:28;5.50;;;3.70;;
77117;SDS011;66072;50.238;19.228;2024-02-23T00:39:56;4.30;;;2.80;;
77117;SDS011;66072;50.238;19.228;2024-02-23T00:42:24;7.30;;;3.50;;
77117;SDS011;66072;50.238;19.228;2024-02-23T00:44:51;4.90;;;3.70;;
77117;SDS011;66072;50.238;19.228;2024-02-23T00:47:19;6.00;;;3.70;;
77117;SDS011;66072;50.238;19.228;2024-02-23T00:49:47;5.40;;;3.90;;
77117;SDS011;66072;50.238;19.228;2024-02-23T00:52:15;4.20;;;3.30;;
77117;SDS011;66072;50.238;19.228;2024-02-23T00:54:43;5.50;;;3.30;;
77117;SDS011;66072;50.238;19.228;2024-02-23T00:57:11;5.30;;;3.50;;
77117;SDS011;66072;50.238;19.228;2024-02-23T00:59:38;6.60;;;4.00;;
77117;SDS011;66072;50.238;19.228;2024-02-23T01:02:06;6.20;;;4.10;;
77117;SDS011;66072;50.238;19.228;2024-02-23T01:04:34;5.50;;;4.20;;
77117;SDS011;66072;50.238;19.228;2024-02-23T01:07:02;6.20;;;4.10;;
77117;SDS011;66072;50.238;19.228;2024-02-23T01:09:29;7.00;;;4.90;;
77117;SDS011;66072;50.238;19.228;2024-02-23T01:11:57;6.40;;;3.80;;
77117;SDS011;66072;50.238;19.228;2024-02-23T01:14:25;5.10;;;3.10;;
77117;SDS011;66072;50.238;19.228;2024-02-23T01:16:53;6.80;;;3.50;;
77117;SDS011;66072;50.238;19.228;2024-02-23T01:19:21;6.10;;;3.50;;
77117;SDS011;66072;50.238;19.228;2024-02-23T01:21:49;5.40;;;3.40;;
77117;SDS011;66072;50.238;19.228;2024-02-23T01:24:16;6.30;;;3.20;;
77117;SDS011;66072;50.238;19.228;2024-02-23T01:26:44;4.90;;;3.40;;
77117;SDS011;66072;50.238;19.228;2024-02-23T01:29:12;4.50;;;3.50;;
77117;SDS011;66072;50.238;19.228;2024-02-23T01:31:39;5.80;;;3.60;;
77117;SDS011;66072;50.238;19.228;2024-02-23T01:34:07;6.20;;;3.90;;
77117;SDS011;66072;50.238;19.228;2024-02-23T01:36:35;7.10;;;4.00;;
77117;SDS011;66072;50.238;19.228;2024-02-23T01:39:03;6.40;;;3.80;;
77117;SDS011;66072;50.238;19.228;2024-02-23T01:41:30;6.70;;;4.20;;
77117;SDS011;66072;50.238;19.228;2024-02-23T01:43:58;7.00;;;3.50;;
77117;SDS011;66072;50.238;19.228;2024-02-23T01:46:26;5.10;;;3.50;;
77117;SDS011;66072;50.238;19.228;2024-02-23T01:48:54;7.70;;;3.90;;
77117;SDS011;66072;50.238;19.228;2024-02-23T01:51:22;8.00;;;4.10;;
77117;SDS011;66072;50.238;19.228;2024-02-23T01:53:50;6.00;;;3.90;;
77117;SDS011;66072;50.238;19.228;2024-02-23T01:56:18;6.10;;;3.60;;
77117;SDS011;66072;50.238;19.228;2024-02-23T01:58:48;6.40;;;5.00;;
77117;SDS011;66072;50.238;19.228;2024-02-23T02:01:16;4.70;;;3.10;;
77117;SDS011;66072;50.238;19.228;2024-02-23T02:03:44;4.90;;;3.10;;
77117;SDS011;66072;50.238;19.228;2024-02-23T02:06:13;6.70;;;3.30;;
77117;SDS011;66072;50.238;19.228;2024-02-23T02:08:41;5.00;;;3.10;;
77117;SDS011;66072;50.238;19.228;2024-02-23T02:11:09;5.70;;;3.40;;
77117;SDS011;66072;50.238;19.228;2024-02-23T02:13:37;5.30;;;2.90;;
77117;SDS011;66072;50.238;19.228;2024-02-23T02:16:04;6.60;;;3.80;;
77117;SDS011;66072;50.238;19.228;2024-02-23T02:18:32;4.00;;;2.50;;
77117;SDS011;66072;50.238;19.228;2024-02-23T02:21:00;6.00;;;2.90;;
77117;SDS011;66072;50.238;19.228;2024-02-23T02:23:28;5.10;;;3.00;;
77117;SDS011;66072;50.238;19.228;2024-02-23T02:25:56;5.60;;;3.30;;
77117;SDS011;66072;50.238;19.228;2024-02-23T02:28:25;4.60;;;2.80;;
77117;SDS011;66072;50.238;19.228;2024-02-23T02:30:53;4.00;;;2.60;;
77117;SDS011;66072;50.238;19.228;2024-02-23T02:33:21;5.10;;;3.00;;
77117;SDS011;66072;50.238;19.228;2024-02-23T02:35:50;5.10;;;2.90;;
77117;SDS011;66072;50.238;19.228;2024-02-23T02:38:17;4.70;;;2.50;;
77117;SDS011;66072;50.238;19.228;2024-02-23T02:40:45;3.90;;;2.30;;
77117;SDS011;66072;50.238;19.228;2024-02-23T02:43:13;4.90;;;3.00;;
77117;SDS011;66072;50.238;19.228;2024-02-23T02:45:41;4.80;;;2.60;;
77117;SDS011;66072;50.238;19.228;2024-02-23T02:48:09;4.90;;;3.00;;
77117;SDS011;66072;50.238;19.228;2024-02-23T02:50:37;3.80;;;2.50;;
77117;SDS011;66072;50.238;19.228;2024-02-23T02:53:05;4.20;;;2.50;;
77117;SDS011;66072;50.238;19.228;2024-02-23T02:55:32;5.60;;;3.10;;
77117;SDS011;66072;50.238;19.228;2024-02-23T02:58:00;4.80;;;2.90;;
77117;SDS011;66072;50.238;19.228;2024-02-23T03:00:28;5.10;;;2.80;;
77117;SDS011;66072;50.238;19.228;2024-02-23T03:02:56;4.90;;;2.90;;
77117;SDS011;66072;50.238;19.228;2024-02-23T03:05:23;5.70;;;3.00;;
77117;SDS011;66072;50.238;19.228;2024-02-23T03:07:51;5.10;;;3.40;;
77117;SDS011;66072;50.238;19.228;2024-02-23T03:10:19;4.30;;;2.80;;
77117;SDS011;66072;50.238;19.228;2024-02-23T03:12:47;4.90;;;2.70;;
77117;SDS011;66072;50.238;19.228;2024-02-23T03:15:15;3.90;;;2.80;;
77117;SDS011;66072;50.238;19.228;2024-02-23T03:17:42;4.80;;;3.50;;
77117;SDS011;66072;50.238;19.228;2024-02-23T03:20:11;6.00;;;4.10;;
77117;SDS011;66072;50.238;19.228;2024-02-23T03:22:39;6.40;;;4.10;;
77117;SDS011;66072;50.238;19.228;2024-02-23T03:25:07;5.70;;;4.10;;
77117;SDS011;66072;50.238;19.228;2024-02-23T03:27:36;7.60;;;4.80;;
77117;SDS011;66072;50.238;19.228;2024-02-23T03:30:04;6.30;;;4.30;;
77117;SDS011;66072;50.238;19.228;2024-02-23T03:32:33;7.10;;;4.10;;
77117;SDS011;66072;50.238;19.228;2024-02-23T03:35:02;7.00;;;4.40;;
77117;SDS011;66072;50.238;19.228;2024-02-23T03:37:30;5.80;;;4.00;;
77117;SDS011;66072;50.238;19.228;2024-02-23T03:39:58;5.90;;;3.60;;
77117;SDS011;66072;50.238;19.228;2024-02-23T03:42:26;5.20;;;3.50;;
77117;SDS011;66072;50.238;19.228;2024-02-23T03:44:54;5.30;;;3.70;;
77117;SDS011;66072;50.238;19.228;2024-02-23T03:47:22;4.90;;;3.40;;
77117;SDS011;66072;50.238;19.228;2024-02-23T03:49:50;5.20;;;3.60;;
77117;SDS011;66072;50.238;19.228;2024-02-23T03:52:17;5.50;;;2.90;;
77117;SDS011;66072;50.238;19.228;2024-02-23T03:54:45;5.80;;;4.00;;
77117;SDS011;66072;50.238;19.228;2024-02-23T03:57:13;3.80;;;2.90;;
77117;SDS011;66072;50.238;19.228;2024-02-23T03:59:50;5.00;;;3.20;;
77117;SDS011;66072;50.238;19.228;2024-02-23T04:02:19;5.20;;;3.30;;
77117;SDS011;66072;50.238;19.228;2024-02-23T04:04:47;5.30;;;3.80;;
77117;SDS011;66072;50.238;19.228;2024-02-23T04:07:15;6.60;;;3.70;;
77117;SDS011;66072;50.238;19.228;2024-02-23T04:09:43;7.00;;;4.20;;
77117;SDS011;66072;50.238;19.228;2024-02-23T04:12:11;5.00;;;3.70;;
77117;SDS011;66072;50.238;19.228;2024-02-23T04:14:39;5.60;;;3.30;;
77117;SDS011;66072;50.238;19.228;2024-02-23T04:17:07;5.90;;;3.80;;
77117;SDS011;66072;50.238;19.228;2024-02-23T04:19:34;7.70;;;4.50;;
77117;SDS011;66072;50.238;19.228;2024-02-23T04:22:02;6.40;;;3.90;;
77117;SDS011;66072;50.238;19.228;2024-02-23T04:24:31;6.30;;;3.50;;
77117;SDS011;66072;50.238;19.228;2024-02-23T04:26:59;6.00;;;4.50;;
77117;SDS011;66072;50.238;19.228;2024-02-23T04:29:26;6.80;;;4.80;;
77117;SDS011;66072;50.238;19.228;2024-02-23T04:31:54;7.00;;;4.40;;
77117;SDS011;66072;50.238;19.228;2024-02-23T04:34:22;6.20;;;3.80;;
77117;SDS011;66072;50.238;19.228;2024-02-23T04:36:50;4.90;;;3.40;;
77117;SDS011;66072;50.238;19.228;2024-02-23T04:39:18;6.20;;;3.10;;
77117;SDS011;66072;50.238;19.228;2024-02-23T04:41:46;4.40;;;2.60;;
77117;SDS011;66072;50.238;19.228;2024-02-23T04:44:13;4.80;;;3.20;;
77117;SDS011;66072;50.238;19.228;2024-02-23T04:46:41;4.00;;;2.70;;
77117;SDS011;66072;50.238;19.228;2024-02-23T04:49:10;4.70;;;2.80;;
77117;SDS011;66072;50.238;19.228;2024-02-23T04:51:37;4.80;;;2.80;;
77117;SDS011;66072;50.238;19.228;2024-02-23T04:54:05;4.20;;;2.90;;
77117;SDS011;66072;50.238;19.228;2024-02-23T04:56:33;5.80;;;2.80;;
77117;SDS011;66072;50.238;19.228;2024-02-23T04:59:01;6.10;;;3.20;;
77117;SDS011;66072;50.238;19.228;2024-02-23T05:01:29;6.20;;;3.20;;
77117;SDS011;66072;50.238;19.228;2024-02-23T05:04:02;4.50;;;3.10;;
77117;SDS011;66072;50.238;19.228;2024-02-23T05:06:30;5.80;;;3.10;;
77117;SDS011;66072;50.238;19.228;2024-02-23T05:08:58;5.50;;;2.80;;
77117;SDS011;66072;50.238;19.228;2024-02-23T05:11:26;6.00;;;3.10;;
77117;SDS011;66072;50.238;19.228;2024-02-23T05:13:54;5.60;;;3.20;;
77117;SDS011;66072;50.238;19.228;2024-02-23T05:16:21;5.80;;;3.40;;
77117;SDS011;66072;50.238;19.228;2024-02-23T05:18:49;4.10;;;2.70;;
77117;SDS011;66072;50.238;19.228;2024-02-23T05:21:17;5.30;;;2.80;;
77117;SDS011;66072;50.238;19.228;2024-02-23T05:23:45;4.80;;;2.70;;
77117;SDS011;66072;50.238;19.228;2024-02-23T05:26:12;6.30;;;3.40;;
77117;SDS011;66072;50.238;19.228;2024-02-23T05:28:40;6.70;;;3.70;;
77117;SDS011;66072;50.238;19.228;2024-02-23T05:31:09;5.20;;;2.90;;
77117;SDS011;66072;50.238;19.228;2024-02-23T05:33:37;4.90;;;3.40;;
77117;SDS011;66072;50.238;19.228;2024-02-23T05:36:05;5.80;;;3.90;;
77117;SDS011;66072;50.238;19.228;2024-02-23T05:38:33;7.00;;;3.70;;
77117;SDS011;66072;50.238;19.228;2024-02-23T05:41:01;3.70;;;2.60;;
77117;SDS011;66072;50.238;19.228;2024-02-23T05:43:29;7.60;;;3.30;;
77117;SDS011;66072;50.238;19.228;2024-02-23T05:45:57;4.30;;;2.80;;
77117;SDS011;66072;50.238;19.228;2024-02-23T05:48:24;5.20;;;3.10;;
77117;SDS011;66072;50.238;19.228;2024-02-23T05:50:52;4.50;;;2.60;;
77117;SDS011;66072;50.238;19.228;2024-02-23T05:53:20;5.80;;;3.00;;
77117;SDS011;66072;50.238;19.228;2024-02-23T05:55:48;4.60;;;2.50;;
77117;SDS011;66072;50.238;19.228;2024-02-23T05:58:15;4.60;;;3.10;;
77117;SDS011;66072;50.238;19.228;2024-02-23T06:00:43;6.10;;;3.30;;
77117;SDS011;66072;50.238;19.228;2024-02-23T06:03:11;4.90;;;3.20;;
77117;SDS011;66072;50.238;19.228;2024-02-23T06:05:39;5.90;;;3.00;;
77117;SDS011;66072;50.238;19.228;2024-02-23T06:08:06;5.80;;;3.60;;
77117;SDS011;66072;50.238;19.228;2024-02-23T06:10:34;6.50;;;4.20;;
77117;SDS011;66072;50.238;19.228;2024-02-23T06:13:02;5.50;;;3.70;;
77117;SDS011;66072;50.238;19.228;2024-02-23T06:15:31;5.70;;;3.70;;
77117;SDS011;66072;50.238;19.228;2024-02-23T06:17:59;6.80;;;3.70;;
77117;SDS011;66072;50.238;19.228;2024-02-23T06:20:27;6.20;;;2.90;;
77117;SDS011;66072;50.238;19.228;2024-02-23T06:22:54;3.90;;;2.60;;
77117;SDS011;66072;50.238;19.228;2024-02-23T06:25:23;5.50;;;3.60;;
77117;SDS011;66072;50.238;19.228;2024-02-23T06:27:51;5.70;;;3.50;;
77117;SDS011;66072;50.238;19.228;2024-02-23T06:30:18;5.20;;;2.60;;
77117;SDS011;66072;50.238;19.228;2024-02-23T06:32:46;5.00;;;3.50;;
77117;SDS011;66072;50.238;19.228;2024-02-23T06:35:14;5.70;;;3.00;;
77117;SDS011;66072;50.238;19.228;2024-02-23T06:37:42;5.90;;;3.30;;
77117;SDS011;66072;50.238;19.228;2024-02-23T06:40:10;5.20;;;3.50;;
77117;SDS011;66072;50.238;19.228;2024-02-23T06:42:38;5.60;;;3.90;;
77117;SDS011;66072;50.238;19.228;2024-02-23T06:45:06;5.60;;;3.20;;
77117;SDS011;66072;50.238;19.228;2024-02-23T06:47:34;7.30;;;4.40;;
77117;SDS011;66072;50.238;19.228;2024-02-23T06:50:02;10.10;;;5.60;;
77117;SDS011;66072;50.238;19.228;2024-02-23T06:52:31;5.30;;;3.30;;
77117;SDS011;66072;50.238;19.228;2024-02-23T06:54:59;5.90;;;3.90;;
77117;SDS011;66072;50.238;19.228;2024-02-23T06:57:27;5.20;;;3.30;;
77117;SDS011;66072;50.238;19.228;2024-02-23T06:59:55;4.90;;;3.70;;
77117;SDS011;66072;50.238;19.228;2024-02-23T07:02:22;6.40;;;3.80;;
77117;SDS011;66072;50.238;19.228;2024-02-23T07:04:50;6.10;;;3.60;;
77117;SDS011;66072;50.238;19.228;2024-02-23T07:07:18;6.00;;;3.40;;
77117;SDS011;66072;50.238;19.228;2024-02-23T07:09:45;8.00;;;4.70;;
77117;SDS011;66072;50.238;19.228;2024-02-23T07:12:13;9.30;;;5.10;;
77117;SDS011;66072;50.238;19.228;2024-02-23T07:14:41;8.50;;;5.20;;
77117;SDS011;66072;50.238;19.228;2024-02-23T07:17:09;6.60;;;5.50;;
77117;SDS011;66072;50.238;19.228;2024-02-23T07:19:37;8.60;;;6.30;;
77117;SDS011;66072;50.238;19.228;2024-02-23T07:22:04;8.40;;;6.20;;
77117;SDS011;66072;50.238;19.228;2024-02-23T07:24:32;8.70;;;6.10;;
77117;SDS011;66072;50.238;19.228;2024-02-23T07:27:00;9.00;;;6.40;;
77117;SDS011;66072;50.238;19.228;2024-02-23T07:29:28;7.70;;;5.30;;
77117;SDS011;66072;50.238;19.228;2024-02-23T07:31:56;10.90;;;7.30;;
77117;SDS011;66072;50.238;19.228;2024-02-23T07:34:23;9.50;;;7.40;;
77117;SDS011;66072;50.238;19.228;2024-02-23T07:36:51;12.80;;;9.50;;
77117;SDS011;66072;50.238;19.228;2024-02-23T07:39:20;7.40;;;5.80;;
77117;SDS011;66072;50.238;19.228;2024-02-23T07:41:48;8.50;;;6.10;;
77117;SDS011;66072;50.238;19.228;2024-02-23T07:44:16;10.30;;;7.20;;
77117;SDS011;66072;50.238;19.228;2024-02-23T07:46:44;8.00;;;5.10;;
77117;SDS011;66072;50.238;19.228;2024-02-23T07:49:12;7.50;;;4.80;;
77117;SDS011;66072;50.238;19.228;2024-02-23T07:51:39;9.00;;;5.70;;
77117;SDS011;66072;50.238;19.228;2024-02-23T07:54:07;6.90;;;5.00;;
77117;SDS011;66072;50.238;19.228;2024-02-23T07:56:35;9.50;;;5.90;;
77117;SDS011;66072;50.238;19.228;2024-02-23T07:59:03;6.50;;;3.30;;
77117;SDS011;66072;50.238;19.228;2024-02-23T08:01:31;7.10;;;3.40;;
77117;SDS011;66072;50.238;19.228;2024-02-23T08:03:59;4.60;;;3.40;;
77117;SDS011;66072;50.238;19.228;2024-02-23T08:06:26;6.30;;;4.30;;
77117;SDS011;66072;50.238;19.228;2024-02-23T08:08:54;5.70;;;3.60;;
77117;SDS011;66072;50.238;19.228;2024-02-23T08:11:22;6.60;;;3.90;;
77117;SDS011;66072;50.238;19.228;2024-02-23T08:13:50;6.00;;;4.30;;
77117;SDS011;66072;50.238;19.228;2024-02-23T08:16:18;6.50;;;4.40;;
77117;SDS011;66072;50.238;19.228;2024-02-23T08:18:45;5.70;;;3.70;;
77117;SDS011;66072;50.238;19.228;2024-02-23T08:21:13;6.20;;;3.20;;
77117;SDS011;66072;50.238;19.228;2024-02-23T08:23:41;6.20;;;3.30;;
77117;SDS011;66072;50.238;19.228;2024-02-23T08:26:09;5.50;;;3.60;;
77117;SDS011;66072;50.238;19.228;2024-02-23T08:28:36;4.70;;;3.70;;
77117;SDS011;66072;50.238;19.228;2024-02-23T08:31:04;6.50;;;4.30;;
77117;SDS011;66072;50.238;19.228;2024-02-23T08:33:32;6.60;;;3.60;;
77117;SDS011;66072;50.238;19.228;2024-02-23T08:36:00;7.00;;;3.90;;
77117;SDS011;66072;50.238;19.228;2024-02-23T08:38:28;6.50;;;4.10;;
77117;SDS011;66072;50.238;19.228;2024-02-23T08:40:56;5.50;;;3.70;;
77117;SDS011;66072;50.238;19.228;2024-02-23T08:43:24;7.00;;;4.30;;
77117;SDS011;66072;50.238;19.228;2024-02-23T08:45:51;6.30;;;4.00;;
77117;SDS011;66072;50.238;19.228;2024-02-23T08:48:19;5.60;;;4.00;;
77117;SDS011;66072;50.238;19.228;2024-02-23T08:50:47;6.90;;;4.70;;
77117;SDS011;66072;50.238;19.228;2024-02-23T08:53:15;5.80;;;4.00;;
77117;SDS011;66072;50.238;19.228;2024-02-23T08:55:43;8.00;;;5.10;;
77117;SDS011;66072;50.238;19.228;2024-02-23T08:58:11;9.60;;;5.40;;
77117;SDS011;66072;50.238;19.228;2024-02-23T09:00:38;7.10;;;4.90;;
77117;SDS011;66072;50.238;19.228;2024-02-23T09:03:06;7.90;;;5.10;;
77117;SDS011;66072;50.238;19.228;2024-02-23T09:05:34;7.90;;;5.30;;
77117;SDS011;66072;50.238;19.228;2024-02-23T09:08:01;9.60;;;7.80;;
77117;SDS011;66072;50.238;19.228;2024-02-23T09:10:29;11.80;;;7.40;;
77117;SDS011;66072;50.238;19.228;2024-02-23T09:12:57;14.50;;;9.00;;
77117;SDS011;66072;50.238;19.228;2024-02-23T09:15:25;11.20;;;7.40;;
77117;SDS011;66072;50.238;19.228;2024-02-23T09:17:52;13.20;;;7.50;;
77117;SDS011;66072;50.238;19.228;2024-02-23T09:20:20;9.00;;;6.70;;
77117;SDS011;66072;50.238;19.228;2024-02-23T09:22:48;10.00;;;6.60;;
77117;SDS011;66072;50.238;19.228;2024-02-23T09:25:16;7.50;;;5.80;;
77117;SDS011;66072;50.238;19.228;2024-02-23T09:27:43;10.10;;;6.00;;
77117;SDS011;66072;50.238;19.228;2024-02-23T09:30:12;8.80;;;6.00;;
77117;SDS011;66072;50.238;19.228;2024-02-23T09:32:40;7.80;;;5.20;;
77117;SDS011;66072;50.238;19.228;2024-02-23T09:35:09;6.50;;;4.30;;
77117;SDS011;66072;50.238;19.228;2024-02-23T09:37:37;5.30;;;3.90;;
77117;SDS011;66072;50.238;19.228;2024-02-23T09:40:05;6.90;;;4.50;;
77117;SDS011;66072;50.238;19.228;2024-02-23T09:42:34;6.40;;;3.60;;
77117;SDS011;66072;50.238;19.228;2024-02-23T09:45:01;4.90;;;3.00;;
77117;SDS011;66072;50.238;19.228;2024-02-23T09:47:30;4.90;;;2.90;;
77117;SDS011;66072;50.238;19.228;2024-02-23T09:49:59;8.20;;;3.50;;
77117;SDS011;66072;50.238;19.228;2024-02-23T09:52:31;5.60;;;3.10;;
77117;SDS011;66072;50.238;19.228;2024-02-23T09:54:59;5.50;;;3.30;;
77117;SDS011;66072;50.238;19.228;2024-02-23T09:57:27;6.00;;;3.80;;
77117;SDS011;66072;50.238;19.228;2024-02-23T09:59:55;5.90;;;3.50;;
77117;SDS011;66072;50.238;19.228;2024-02-23T10:02:23;6.50;;;3.50;;
77117;SDS011;66072;50.238;19.228;2024-02-23T10:04:51;6.90;;;3.80;;
77117;SDS011;66072;50.238;19.228;2024-02-23T10:07:21;6.00;;;3.30;;
77117;SDS011;66072;50.238;19.228;2024-02-23T10:09:51;5.60;;;4.10;;
77117;SDS011;66072;50.238;19.228;2024-02-23T10:12:20;6.30;;;3.80;;
77117;SDS011;66072;50.238;19.228;2024-02-23T10:14:47;8.20;;;4.70;;
77117;SDS011;66072;50.238;19.228;2024-02-23T10:17:15;6.20;;;3.50;;
77117;SDS011;66072;50.238;19.228;2024-02-23T10:19:44;7.10;;;3.90;;
77117;SDS011;66072;50.238;19.228;2024-02-23T10:22:12;5.80;;;3.50;;
77117;SDS011;66072;50.238;19.228;2024-02-23T10:24:41;6.10;;;3.40;;
77117;SDS011;66072;50.238;19.228;2024-02-23T10:27:09;6.80;;;3.70;;
77117;SDS011;66072;50.238;19.228;2024-02-23T10:29:37;4.90;;;3.00;;
77117;SDS011;66072;50.238;19.228;2024-02-23T10:32:05;8.00;;;3.70;;
77117;SDS011;66072;50.238;19.228;2024-02-23T10:34:34;5.40;;;3.40;;
77117;SDS011;66072;50.238;19.228;2024-02-23T10:37:04;5.10;;;3.10;;
77117;SDS011;66072;50.238;19.228;2024-02-23T10:39:35;6.50;;;3.50;;
77117;SDS011;66072;50.238;19.228;2024-02-23T10:42:04;7.60;;;4.00;;
77117;SDS011;66072;50.238;19.228;2024-02-23T10:44:36;4.60;;;2.90;;
77117;SDS011;66072;50.238;19.228;2024-02-23T10:47:04;4.10;;;2.60;;
77117;SDS011;66072;50.238;19.228;2024-02-23T10:49:34;5.60;;;3.40;;
77117;SDS011;66072;50.238;19.228;2024-02-23T10:52:02;5.30;;;2.80;;
77117;SDS011;66072;50.238;19.228;2024-02-23T10:54:31;4.70;;;2.80;;
77117;SDS011;66072;50.238;19.228;2024-02-23T10:56:59;4.10;;;2.10;;
77117;SDS011;66072;50.238;19.228;2024-02-23T10:59:27;5.40;;;2.70;;
77117;SDS011;66072;50.238;19.228;2024-02-23T11:01:55;4.30;;;2.30;;
77117;SDS011;66072;50.238;19.228;2024-02-23T11:04:26;4.70;;;3.00;;
77117;SDS011;66072;50.238;19.228;2024-02-23T11:06:55;4.10;;;2.30;;
77117;SDS011;66072;50.238;19.228;2024-02-23T11:09:24;6.10;;;2.50;;
77117;SDS011;66072;50.238;19.228;2024-02-23T11:11:53;5.80;;;3.10;;
77117;SDS011;66072;50.238;19.228;2024-02-23T11:14:37;6.60;;;3.30;;
77117;SDS011;66072;50.238;19.228;2024-02-23T11:17:06;5.90;;;3.20;;
77117;SDS011;66072;50.238;19.228;2024-02-23T11:19:38;6.30;;;3.50;;
77117;SDS011;66072;50.238;19.228;2024-02-23T11:22:10;6.20;;;2.90;;
77117;SDS011;66072;50.238;19.228;2024-02-23T11:24:49;5.00;;;2.90;;
77117;SDS011;66072;50.238;19.228;2024-02-23T11:27:21;7.30;;;4.40;;
77117;SDS011;66072;50.238;19.228;2024-02-23T11:30:26;6.30;;;4.40;;
77117;SDS011;66072;50.238;19.228;2024-02-23T11:32:47;7.10;;;3.70;;
77117;SDS011;66072;50.238;19.228;2024-02-23T11:35:16;6.20;;;3.50;;
77117;SDS011;66072;50.238;19.228;2024-02-23T11:37:54;6.70;;;3.80;;
77117;SDS011;66072;50.238;19.228;2024-02-23T11:40:23;7.20;;;3.60;;
77117;SDS011;66072;50.238;19.228;2024-02-23T11:42:54;8.60;;;4.10;;
77117;SDS011;66072;50.238;19.228;2024-02-23T11:45:23;6.60;;;3.90;;
77117;SDS011;66072;50.238;19.228;2024-02-23T11:47:51;7.60;;;5.30;;
77117;SDS011;66072;50.238;19.228;2024-02-23T11:50:20;9.60;;;5.10;;
77117;SDS011;66072;50.238;19.228;2024-02-23T11:52:48;8.20;;;5.10;;
77117;SDS011;66072;50.238;19.228;2024-02-23T11:55:19;11.80;;;6.20;;
77117;SDS011;66072;50.238;19.228;2024-02-23T11:57:47;10.40;;;7.40;;
77117;SDS011;66072;50.238;19.228;2024-02-23T12:00:18;9.50;;;6.20;;
77117;SDS011;66072;50.238;19.228;2024-02-23T12:02:46;8.50;;;5.30;;
77117;SDS011;66072;50.238;19.228;2024-02-23T12:05:14;8.00;;;4.40;;
77117;SDS011;66072;50.238;19.228;2024-02-23T12:07:42;7.70;;;5.00;;
77117;SDS011;66072;50.238;19.228;2024-02-23T12:10:14;9.50;;;5.40;;
77117;SDS011;66072;50.238;19.228;2024-02-23T12:12:42;8.50;;;5.20;;
77117;SDS011;66072;50.238;19.228;2024-02-23T12:15:10;7.70;;;4.90;;
77117;SDS011;66072;50.238;19.228;2024-02-23T12:17:46;9.90;;;5.20;;
77117;SDS011;66072;50.238;19.228;2024-02-23T12:20:15;8.50;;;5.50;;
77117;SDS011;66072;50.238;19.228;2024-02-23T12:22:43;6.20;;;4.70;;
77117;SDS011;66072;50.238;19.228;2024-02-23T12:25:12;6.60;;;3.70;;
77117;SDS011;66072;50.238;19.228;2024-02-23T12:27:40;6.40;;;4.30;;
77117;SDS011;66072;50.238;19.228;2024-02-23T12:30:15;7.60;;;4.60;;
77117;SDS011;66072;50.238;19.228;2024-02-23T12:32:43;6.30;;;4.60;;
77117;SDS011;66072;50.238;19.228;2024-02-23T12:35:11;5.40;;;3.70;;
77117;SDS011;66072;50.238;19.228;2024-02-23T12:37:40;7.00;;;3.80;;
77117;SDS011;66072;50.238;19.228;2024-02-23T12:40:11;5.40;;;3.90;;
77117;SDS011;66072;50.238;19.228;2024-02-23T12:42:39;6.30;;;3.70;;
77117;SDS011;66072;50.238;19.228;2024-02-23T12:45:07;7.10;;;4.30;;
77117;SDS011;66072;50.238;19.228;2024-02-23T12:47:35;7.90;;;3.70;;
77117;SDS011;66072;50.238;19.228;2024-02-23T12:50:03;7.10;;;3.70;;
77117;SDS011;66072;50.238;19.228;2024-02-23T12:52:31;6.40;;;4.50;;
77117;SDS011;66072;50.238;19.228;2024-02-23T12:54:59;8.00;;;5.00;;
77117;SDS011;66072;50.238;19.228;2024-02-23T12:57:27;7.30;;;4.00;;
77117;SDS011;66072;50.238;19.228;2024-02-23T12:59:55;7.50;;;4.40;;
77117;SDS011;66072;50.238;19.228;2024-02-23T13:02:23;8.80;;;5.00;;
77117;SDS011;66072;50.238;19.228;2024-02-23T13:04:51;7.10;;;4.50;;
77117;SDS011;66072;50.238;19.228;2024-02-23T13:07:18;6.90;;;4.30;;
77117;SDS011;66072;50.238;19.228;2024-02-23T13:09:46;8.00;;;4.40;;
77117;SDS011;66072;50.238;19.228;2024-02-23T13:12:14;6.50;;;4.10;;
77117;SDS011;66072;50.238;19.228;2024-02-23T13:14:42;6.60;;;3.80;;
77117;SDS011;66072;50.238;19.228;2024-02-23T13:17:10;6.80;;;4.30;;
77117;SDS011;66072;50.238;19.228;2024-02-23T13:19:38;7.80;;;5.50;;
77117;SDS011;66072;50.238;19.228;2024-02-23T13:22:06;8.40;;;4.70;;
77117;SDS011;66072;50.238;19.228;2024-02-23T13:24:33;8.00;;;4.90;;
77117;SDS011;66072;50.238;19.228;2024-02-23T13:27:01;9.10;;;5.00;;
77117;SDS011;66072;50.238;19.228;2024-02-23T13:29:29;7.20;;;4.80;;
77117;SDS011;66072;50.238;19.228;2024-02-23T13:31:57;9.20;;;4.70;;
77117;SDS011;66072;50.238;19.228;2024-02-23T13:34:24;7.80;;;4.30;;
77117;SDS011;66072;50.238;19.228;2024-02-23T13:36:52;8.90;;;5.00;;
77117;SDS011;66072;50.238;19.228;2024-02-23T13:39:20;6.60;;;4.40;;
77117;SDS011;66072;50.238;19.228;2024-02-23T13:41:48;5.40;;;3.70;;
77117;SDS011;66072;50.238;19.228;2024-02-23T13:44:16;12.70;;;4.20;;
77117;SDS011;66072;50.238;19.228;2024-02-23T13:46:43;6.30;;;4.10;;
77117;SDS011;66072;50.238;19.228;2024-02-23T13:49:11;8.00;;;4.50;;
77117;SDS011;66072;50.238;19.228;2024-02-23T13:51:39;6.40;;;4.00;;
77117;SDS011;66072;50.238;19.228;2024-02-23T13:54:07;7.50;;;4.00;;
77117;SDS011;66072;50.238;19.228;2024-02-23T13:56:34;7.80;;;4.80;;
77117;SDS011;66072;50.238;19.228;2024-02-23T13:59:02;9.90;;;5.60;;
77117;SDS011;66072;50.238;19.228;2024-02-23T14:01:30;7.70;;;5.50;;
77117;SDS011;66072;50.238;19.228;2024-02-23T14:03:58;8.40;;;4.90;;
77117;SDS011;66072;50.238;19.228;2024-02-23T14:06:26;7.60;;;5.30;;
77117;SDS011;66072;50.238;19.228;2024-02-23T14:08:54;7.20;;;5.30;;
77117;SDS011;66072;50.238;19.228;2024-02-23T14:11:21;9.00;;;6.10;;
77117;SDS011;66072;50.238;19.228;2024-02-23T14:13:49;8.10;;;5.60;;
77117;SDS011;66072;50.238;19.228;2024-02-23T14:16:18;9.90;;;6.30;;
77117;SDS011;66072;50.238;19.228;2024-02-23T14:18:46;8.10;;;5.50;;
77117;SDS011;66072;50.238;19.228;2024-02-23T14:21:14;11.10;;;7.00;;
77117;SDS011;66072;50.238;19.228;2024-02-23T14:23:42;12.90;;;7.70;;
77117;SDS011;66072;50.238;19.228;2024-02-23T14:26:10;10.10;;;6.90;;
77117;SDS011;66072;50.238;19.228;2024-02-23T14:28:38;11.80;;;7.70;;
77117;SDS011;66072;50.238;19.228;2024-02-23T14:31:06;10.10;;;7.40;;
77117;SDS011;66072;50.238;19.228;2024-02-23T14:33:34;10.30;;;7.60;;
77117;SDS011;66072;50.238;19.228;2024-02-23T14:36:02;12.80;;;7.20;;
77117;SDS011;66072;50.238;19.228;2024-02-23T14:38:30;14.70;;;9.40;;